createdAt,value
2022-12-16T00:01:24.236Z,0.30
2022-12-16T00:03:52.804Z,0.20
2022-12-16T00:06:23.444Z,0.10
2022-12-16T00:08:50.461Z,0.10
2022-12-16T00:11:19.767Z,0.20
2022-12-16T00:13:47.831Z,0.20
2022-12-16T00:16:17.123Z,0.30
2022-12-16T00:18:44.650Z,0.30
2022-12-16T00:21:12.167Z,0.30
2022-12-16T00:23:41.593Z,0.30
2022-12-16T00:26:09.077Z,0.20
2022-12-16T00:28:35.940Z,0.20
2022-12-16T00:31:02.890Z,0.20
2022-12-16T00:33:30.699Z,0.20
2022-12-16T00:35:57.893Z,0.10
2022-12-16T00:38:26.924Z,0.10
2022-12-16T00:40:53.734Z,0.10
2022-12-16T00:43:20.908Z,0.10
2022-12-16T00:45:48.580Z,0.10
2022-12-16T00:48:15.660Z,0.10
2022-12-16T00:50:49.050Z,0.00
2022-12-16T00:53:15.816Z,0.00
2022-12-16T00:55:42.695Z,0.00
2022-12-16T00:58:09.477Z,-0.10
2022-12-16T01:00:36.403Z,-0.20
2022-12-16T01:03:03.352Z,-0.20
2022-12-16T01:05:30.208Z,-0.20
2022-12-16T01:07:57.214Z,-0.30
2022-12-16T01:10:25.298Z,-0.30
2022-12-16T01:12:52.434Z,-0.30
2022-12-16T01:15:19.662Z,-0.30
2022-12-16T01:17:47.040Z,-0.30
2022-12-16T01:20:14.296Z,-0.20
2022-12-16T01:22:41.698Z,-0.30
2022-12-16T01:25:11.311Z,-0.30
2022-12-16T01:27:38.084Z,-0.30
2022-12-16T01:30:05.459Z,-0.20
2022-12-16T01:32:32.363Z,-0.20
2022-12-16T01:34:59.180Z,-0.20
2022-12-16T01:37:26.078Z,-0.20
2022-12-16T01:39:52.814Z,-0.30
2022-12-16T01:42:23.476Z,-0.30
2022-12-16T01:44:52.173Z,-0.30
2022-12-16T01:47:30.588Z,-0.30
2022-12-16T01:50:07.498Z,-0.30
2022-12-16T01:52:40.221Z,-0.20
2022-12-16T01:55:12.888Z,-0.20
2022-12-16T01:57:51.771Z,-0.30
2022-12-16T02:00:22.406Z,-0.30
2022-12-16T02:02:51.288Z,-0.40
2022-12-16T02:05:21.306Z,-0.40
2022-12-16T02:08:07.102Z,-0.50
2022-12-16T02:11:06.073Z,-0.50
2022-12-16T02:13:51.545Z,-0.50
2022-12-16T02:16:32.161Z,-0.50
2022-12-16T02:18:58.850Z,-0.60
2022-12-16T02:21:28.567Z,-0.60
2022-12-16T02:24:10.292Z,-0.60
2022-12-16T02:26:55.753Z,-0.60
2022-12-16T02:29:53.443Z,-0.50
2022-12-16T02:32:41.948Z,-0.50
2022-12-16T02:35:36.094Z,-0.50
2022-12-16T02:38:22.364Z,-0.40
2022-12-16T02:41:02.571Z,-0.40
2022-12-16T02:43:48.660Z,-0.50
2022-12-16T02:46:16.198Z,-0.50
2022-12-16T02:48:42.954Z,-0.50
2022-12-16T02:51:10.008Z,-0.60
2022-12-16T02:53:39.405Z,-0.70
2022-12-16T02:56:25.138Z,-0.80
2022-12-16T02:59:16.436Z,-0.80
2022-12-16T03:02:06.036Z,-0.90
2022-12-16T03:05:16.752Z,-0.90
2022-12-16T03:07:45.009Z,-0.90
2022-12-16T03:10:17.340Z,-0.90
2022-12-16T03:12:46.046Z,-0.90
2022-12-16T03:15:17.410Z,-0.90
2022-12-16T03:17:47.064Z,-0.90
2022-12-16T03:20:28.162Z,-0.80
2022-12-16T03:22:59.348Z,-0.90
2022-12-16T03:25:28.219Z,-1.00
2022-12-16T03:28:28.030Z,-0.90
2022-12-16T03:31:09.049Z,-1.00
2022-12-16T03:33:42.765Z,-1.00
2022-12-16T03:36:22.606Z,-1.10
2022-12-16T03:38:51.215Z,-1.00
2022-12-16T03:41:19.560Z,-1.00
2022-12-16T03:43:46.713Z,-0.90
2022-12-16T03:46:14.705Z,-0.90
2022-12-16T03:48:50.095Z,-0.90
2022-12-16T03:51:17.782Z,-0.90
2022-12-16T03:53:45.343Z,-1.00
2022-12-16T03:56:12.788Z,-1.00
2022-12-16T03:58:42.833Z,-0.90
2022-12-16T04:01:10.477Z,-0.90
2022-12-16T04:03:38.106Z,-0.70
2022-12-16T04:06:05.776Z,-0.70
2022-12-16T04:08:32.592Z,-0.60
2022-12-16T04:11:18.056Z,-0.50
2022-12-16T04:14:03.593Z,-0.50
2022-12-16T04:16:49.398Z,-0.40
2022-12-16T04:19:44.579Z,-0.30
2022-12-16T04:22:37.320Z,-0.20
2022-12-16T04:25:12.196Z,-0.20
2022-12-16T04:27:39.024Z,-0.20
2022-12-16T04:30:21.967Z,-0.20
2022-12-16T04:33:17.955Z,-0.20
2022-12-16T04:36:03.872Z,-0.20
2022-12-16T04:38:49.533Z,-0.20
2022-12-16T04:41:35.017Z,-0.20
2022-12-16T04:44:20.412Z,-0.10
2022-12-16T04:47:06.265Z,-0.10
2022-12-16T04:49:51.770Z,-0.10
2022-12-16T04:52:37.772Z,0.00
2022-12-16T04:55:24.253Z,0.00
2022-12-16T04:58:15.204Z,0.00
2022-12-16T05:01:01.093Z,0.00
2022-12-16T05:03:47.328Z,0.00
2022-12-16T05:06:33.061Z,0.00
2022-12-16T05:09:18.726Z,-0.10
2022-12-16T05:12:04.186Z,-0.10
2022-12-16T05:14:49.615Z,-0.10
2022-12-16T05:17:35.147Z,-0.10
2022-12-16T05:20:20.709Z,-0.10
2022-12-16T05:23:06.126Z,-0.20
2022-12-16T05:25:51.748Z,-0.20
2022-12-16T05:28:37.333Z,-0.20
2022-12-16T05:31:23.000Z,-0.20
2022-12-16T05:34:08.316Z,-0.20
2022-12-16T05:36:53.822Z,-0.30
2022-12-16T05:39:39.372Z,-0.40
2022-12-16T05:42:24.843Z,-0.40
2022-12-16T05:45:10.347Z,-0.30
2022-12-16T05:47:55.784Z,-0.30
2022-12-16T05:50:41.135Z,-0.30
2022-12-16T05:53:26.654Z,-0.30
2022-12-16T05:56:12.156Z,-0.30
2022-12-16T05:58:57.780Z,-0.30
2022-12-16T06:01:43.299Z,-0.40
2022-12-16T06:04:28.751Z,-0.40
2022-12-16T06:07:14.162Z,-0.40
2022-12-16T06:09:59.707Z,-0.30
2022-12-16T06:12:45.175Z,-0.40
2022-12-16T06:15:30.611Z,-0.40
2022-12-16T06:18:26.564Z,-0.40
2022-12-16T06:21:12.181Z,-0.40
2022-12-16T06:23:57.661Z,-0.40
2022-12-16T06:26:44.074Z,-0.40
2022-12-16T06:29:29.668Z,-0.40
2022-12-16T06:32:15.259Z,-0.40
2022-12-16T06:35:00.616Z,-0.40
2022-12-16T06:37:46.406Z,-0.40
2022-12-16T06:40:31.931Z,-0.40
2022-12-16T06:43:17.707Z,-0.40
2022-12-16T06:46:03.416Z,-0.40
2022-12-16T06:48:48.720Z,-0.30
2022-12-16T06:51:34.368Z,-0.40
2022-12-16T06:54:19.992Z,-0.40
2022-12-16T06:57:05.661Z,-0.40
2022-12-16T06:59:51.337Z,-0.50
2022-12-16T07:02:36.978Z,-0.40
2022-12-16T07:05:23.387Z,-0.40
2022-12-16T07:08:09.945Z,-0.40
2022-12-16T07:11:00.374Z,-0.50
2022-12-16T07:13:54.316Z,-0.50
2022-12-16T07:16:39.990Z,-0.50
2022-12-16T07:19:25.438Z,-0.50
2022-12-16T07:22:10.815Z,-0.50
2022-12-16T07:24:56.242Z,-0.60
2022-12-16T07:27:41.413Z,-0.50
2022-12-16T07:30:27.237Z,-0.50
2022-12-16T07:33:12.618Z,-0.40
2022-12-16T07:36:12.464Z,-0.40
2022-12-16T07:38:57.962Z,-0.40
2022-12-16T07:41:43.343Z,-0.40
2022-12-16T07:44:28.985Z,-0.40
2022-12-16T07:47:14.205Z,-0.40
2022-12-16T07:49:59.718Z,-0.40
2022-12-16T07:52:45.361Z,-0.40
2022-12-16T07:55:30.720Z,-0.50
2022-12-16T07:58:16.316Z,-0.40
2022-12-16T08:01:06.369Z,-0.40
2022-12-16T08:03:54.902Z,-0.40
2022-12-16T08:06:41.361Z,-0.40
2022-12-16T08:09:26.638Z,-0.40
2022-12-16T08:12:12.172Z,-0.40
2022-12-16T08:14:57.732Z,-0.30
2022-12-16T08:17:43.335Z,-0.30
2022-12-16T08:20:28.980Z,-0.20
2022-12-16T08:23:14.479Z,-0.20
2022-12-16T08:25:59.928Z,-0.20
2022-12-16T08:28:45.329Z,-0.30
2022-12-16T08:31:30.805Z,-0.30
2022-12-16T08:34:16.477Z,-0.30
2022-12-16T08:37:01.657Z,-0.40
2022-12-16T08:39:54.869Z,-0.40
2022-12-16T08:42:52.464Z,-0.30
2022-12-16T08:45:38.577Z,-0.30
2022-12-16T08:48:23.919Z,-0.30
2022-12-16T08:51:09.595Z,-0.20
2022-12-16T08:53:55.121Z,-0.10
2022-12-16T08:56:40.555Z,0.00
2022-12-16T08:59:26.062Z,0.10
2022-12-16T09:02:11.847Z,0.10
2022-12-16T09:04:57.614Z,0.10
2022-12-16T09:07:43.360Z,0.10
2022-12-16T09:10:30.459Z,0.10
2022-12-16T09:13:25.131Z,0.20
2022-12-16T09:16:15.725Z,0.20
2022-12-16T09:19:03.236Z,0.20
2022-12-16T09:21:48.712Z,0.20
2022-12-16T09:24:34.233Z,0.10
2022-12-16T09:27:20.029Z,0.20
2022-12-16T09:30:05.496Z,0.30
2022-12-16T09:32:50.962Z,0.30
2022-12-16T09:35:36.610Z,0.40
2022-12-16T09:38:21.994Z,0.40
2022-12-16T09:41:07.472Z,0.30
2022-12-16T09:44:02.680Z,0.30
2022-12-16T09:47:08.190Z,0.30
2022-12-16T09:50:06.782Z,0.40
2022-12-16T09:52:59.397Z,0.40
2022-12-16T09:56:01.125Z,0.30
2022-12-16T09:58:53.848Z,0.20
2022-12-16T10:01:41.555Z,0.10
2022-12-16T10:04:26.905Z,0.10
2022-12-16T10:07:17.211Z,0.10
2022-12-16T10:10:31.060Z,0.00
2022-12-16T10:13:41.337Z,0.00
2022-12-16T10:16:45.633Z,0.10
2022-12-16T10:19:49.919Z,0.10
2022-12-16T10:22:55.483Z,0.10
2022-12-16T10:26:07.439Z,0.00
2022-12-16T10:29:07.793Z,0.10
2022-12-16T10:31:55.879Z,0.10
2022-12-16T10:34:48.039Z,0.20
2022-12-16T10:37:39.188Z,0.20
2022-12-16T10:40:26.020Z,0.10
2022-12-16T10:43:40.144Z,0.20
2022-12-16T10:46:33.974Z,0.20
2022-12-16T10:49:19.418Z,0.30
2022-12-16T10:52:09.281Z,0.20
2022-12-16T10:55:01.163Z,0.20
2022-12-16T10:58:11.667Z,0.10
2022-12-16T11:01:09.087Z,0.00
2022-12-16T11:03:59.384Z,0.00
2022-12-16T11:06:58.017Z,0.00
2022-12-16T11:09:53.951Z,0.00
2022-12-16T11:12:47.424Z,0.10
2022-12-16T11:15:42.175Z,0.20
2022-12-16T11:18:39.385Z,0.20
2022-12-16T11:21:34.413Z,0.10
2022-12-16T11:24:28.659Z,0.10
2022-12-16T11:27:16.505Z,0.20
2022-12-16T11:30:23.369Z,0.20
2022-12-16T11:33:16.012Z,0.20
2022-12-16T11:36:06.397Z,0.30
2022-12-16T11:39:04.385Z,0.40
2022-12-16T11:42:01.991Z,0.50
2022-12-16T11:44:58.173Z,0.40
2022-12-16T11:47:46.435Z,0.40
2022-12-16T11:50:35.889Z,0.40
2022-12-16T11:53:24.022Z,0.60
2022-12-16T11:56:16.222Z,0.50
2022-12-16T11:59:07.259Z,0.40
2022-12-16T12:02:01.443Z,0.50
2022-12-16T12:04:46.947Z,0.40
2022-12-16T12:07:45.895Z,0.40
2022-12-16T12:10:53.183Z,0.30
2022-12-16T12:14:39.242Z,0.40
2022-12-16T12:17:33.668Z,0.50
2022-12-16T12:20:40.986Z,0.40
2022-12-16T12:23:43.749Z,0.40
2022-12-16T12:26:36.496Z,0.40
2022-12-16T12:29:30.716Z,0.30
2022-12-16T12:32:23.399Z,0.30
2022-12-16T12:35:40.997Z,0.30
2022-12-16T12:38:41.868Z,0.30
2022-12-16T12:41:47.156Z,0.30
2022-12-16T12:45:07.021Z,0.30
2022-12-16T12:48:10.342Z,0.30
2022-12-16T12:51:12.710Z,0.40
2022-12-16T12:54:12.324Z,0.50
2022-12-16T12:57:08.406Z,0.40
2022-12-16T13:00:15.698Z,0.50
2022-12-16T13:03:18.992Z,0.60
2022-12-16T13:06:04.794Z,0.70
2022-12-16T13:08:56.362Z,0.70
2022-12-16T13:11:43.109Z,0.70
2022-12-16T13:15:07.518Z,0.70
2022-12-16T13:18:18.821Z,0.60
2022-12-16T13:21:15.239Z,0.40
2022-12-16T13:24:04.412Z,0.30
2022-12-16T13:26:52.760Z,0.40
2022-12-16T13:29:49.818Z,0.40
2022-12-16T13:32:42.099Z,0.50
2022-12-16T13:35:27.685Z,0.50
2022-12-16T13:38:14.116Z,0.40
2022-12-16T13:41:22.384Z,0.30
2022-12-16T13:44:07.936Z,0.40
2022-12-16T13:47:06.323Z,0.50
2022-12-16T13:49:54.418Z,0.50
2022-12-16T13:53:07.121Z,0.30
2022-12-16T13:55:59.034Z,0.30
2022-12-16T13:59:06.666Z,0.20
2022-12-16T14:02:15.825Z,0.10
2022-12-16T14:05:06.075Z,0.10
2022-12-16T14:08:07.778Z,0.10
2022-12-16T14:11:00.035Z,0.10
2022-12-16T14:13:48.433Z,0.10
2022-12-16T14:17:10.866Z,0.10
2022-12-16T14:20:24.235Z,0.20
2022-12-16T14:23:55.288Z,0.20
2022-12-16T14:26:34.380Z,0.30
2022-12-16T14:29:21.962Z,0.30
2022-12-16T14:32:07.411Z,0.20
2022-12-16T14:34:56.405Z,0.10
2022-12-16T14:37:53.599Z,0.00
2022-12-16T14:40:40.235Z,0.00
2022-12-16T14:43:37.842Z,0.00
2022-12-16T14:46:23.808Z,0.10
2022-12-16T14:49:10.376Z,0.00
2022-12-16T14:51:56.941Z,0.00
2022-12-16T14:54:48.718Z,0.00
2022-12-16T14:57:37.785Z,0.00
2022-12-16T15:00:38.884Z,0.00
2022-12-16T15:03:43.027Z,0.00
2022-12-16T15:06:40.077Z,-0.10
2022-12-16T15:09:30.007Z,-0.10
2022-12-16T15:12:15.498Z,-0.10
2022-12-16T15:15:01.189Z,-0.10
2022-12-16T15:18:08.034Z,-0.10
2022-12-16T15:20:56.617Z,-0.10
2022-12-16T15:23:52.687Z,0.00
2022-12-16T15:26:46.667Z,0.00
2022-12-16T15:29:56.017Z,0.00
2022-12-16T15:32:44.064Z,0.00
2022-12-16T15:35:41.604Z,0.10
2022-12-16T15:38:42.145Z,0.10
2022-12-16T15:41:48.893Z,0.10
2022-12-16T15:44:45.794Z,0.20
2022-12-16T15:47:50.245Z,0.20
2022-12-16T15:50:39.047Z,0.30
2022-12-16T15:53:56.841Z,0.20
2022-12-16T15:57:00.800Z,0.20
2022-12-16T15:59:52.849Z,0.20
2022-12-16T16:02:49.551Z,0.10
2022-12-16T16:05:42.196Z,0.10
2022-12-16T16:08:29.769Z,0.10
2022-12-16T16:11:15.818Z,0.10
2022-12-16T16:14:07.202Z,0.20
2022-12-16T16:16:55.067Z,0.20
2022-12-16T16:19:45.165Z,0.20
2022-12-16T16:22:36.504Z,0.20
2022-12-16T16:25:22.112Z,0.10
2022-12-16T16:28:07.540Z,0.10
2022-12-16T16:30:53.157Z,0.10
2022-12-16T16:33:38.384Z,0.00
2022-12-16T16:36:33.997Z,0.00
2022-12-16T16:39:20.893Z,0.00
2022-12-16T16:42:06.502Z,0.00
2022-12-16T16:44:52.023Z,-0.10
2022-12-16T16:47:37.632Z,-0.10
2022-12-16T16:50:23.504Z,-0.10
2022-12-16T16:53:09.239Z,-0.20
2022-12-16T16:55:54.597Z,-0.30
2022-12-16T16:58:47.336Z,-0.20
2022-12-16T17:01:35.213Z,-0.20
2022-12-16T17:04:21.100Z,-0.10
2022-12-16T17:07:06.585Z,-0.20
2022-12-16T17:09:52.146Z,-0.20
2022-12-16T17:12:43.866Z,-0.20
2022-12-16T17:15:43.038Z,-0.20
2022-12-16T17:18:28.754Z,-0.30
2022-12-16T17:21:14.528Z,-0.30
2022-12-16T17:24:00.424Z,-0.30
2022-12-16T17:26:45.954Z,-0.30
2022-12-16T17:29:39.937Z,-0.30
2022-12-16T17:32:26.030Z,-0.30
2022-12-16T17:35:11.242Z,-0.40
2022-12-16T17:37:57.211Z,-0.50
2022-12-16T17:40:42.638Z,-0.50
2022-12-16T17:43:28.168Z,-0.60
2022-12-16T17:46:16.346Z,-0.60
2022-12-16T17:49:02.220Z,-0.60
2022-12-16T17:51:47.688Z,-0.70
2022-12-16T17:54:33.268Z,-0.60
2022-12-16T17:57:18.600Z,-0.70
2022-12-16T18:00:04.134Z,-0.60
2022-12-16T18:02:49.676Z,-0.60
2022-12-16T18:05:42.482Z,-0.70
2022-12-16T18:08:43.573Z,-0.70
2022-12-16T18:11:29.151Z,-0.70
2022-12-16T18:14:14.580Z,-0.70
2022-12-16T18:17:00.067Z,-0.80
2022-12-16T18:19:45.725Z,-0.70
2022-12-16T18:22:31.197Z,-0.70
2022-12-16T18:25:16.654Z,-0.80
2022-12-16T18:28:02.020Z,-0.80
2022-12-16T18:30:47.564Z,-0.70
2022-12-16T18:33:33.427Z,-0.60
2022-12-16T18:36:19.208Z,-0.60
2022-12-16T18:39:04.718Z,-0.60
2022-12-16T18:41:50.260Z,-0.60
2022-12-16T18:44:35.829Z,-0.60
2022-12-16T18:47:21.314Z,-0.50
2022-12-16T18:50:06.574Z,-0.60
2022-12-16T18:52:52.092Z,-0.50
2022-12-16T18:55:37.484Z,-0.50
2022-12-16T19:01:30.265Z,-0.50
2022-12-16T19:04:16.207Z,-0.50
2022-12-16T19:07:01.432Z,-0.60
2022-12-16T19:09:46.991Z,-0.50
2022-12-16T19:12:32.420Z,-0.50
2022-12-16T19:15:17.845Z,-0.60
2022-12-16T19:18:03.231Z,-0.60
2022-12-16T19:20:48.770Z,-0.60
2022-12-16T19:23:34.437Z,-0.60
2022-12-16T19:26:20.447Z,-0.60
2022-12-16T19:29:05.852Z,-0.50
2022-12-16T19:31:51.858Z,-0.50
2022-12-16T19:34:37.208Z,-0.40
2022-12-16T19:37:22.613Z,-0.40
2022-12-16T19:40:08.193Z,-0.40
2022-12-16T19:42:55.768Z,-0.40
2022-12-16T19:45:41.266Z,-0.40
2022-12-16T19:48:26.643Z,-0.40
2022-12-16T19:51:16.296Z,-0.40
2022-12-16T19:54:03.712Z,-0.50
2022-12-16T19:56:49.548Z,-0.40
2022-12-16T19:59:34.962Z,-0.40
2022-12-16T20:02:20.487Z,-0.50
2022-12-16T20:05:06.205Z,-0.50
2022-12-16T20:07:51.832Z,-0.50
2022-12-16T20:10:37.367Z,-0.40
2022-12-16T20:13:30.375Z,-0.40
2022-12-16T20:16:26.543Z,-0.40
2022-12-16T20:19:12.016Z,-0.50
2022-12-16T20:21:59.716Z,-0.40
2022-12-16T20:24:48.573Z,-0.50
2022-12-16T20:27:34.077Z,-0.50
2022-12-16T20:30:19.545Z,-0.50
2022-12-16T20:33:06.074Z,-0.50
2022-12-16T20:35:51.339Z,-0.60
2022-12-16T20:38:36.810Z,-0.70
2022-12-16T20:41:23.118Z,-0.70
2022-12-16T20:44:09.538Z,-0.80
2022-12-16T20:46:56.255Z,-0.70
2022-12-16T20:49:42.159Z,-0.70
2022-12-16T20:52:27.701Z,-0.70
2022-12-16T20:55:13.103Z,-0.70
2022-12-16T20:57:58.523Z,-0.80
2022-12-16T21:00:44.075Z,-0.80
2022-12-16T21:03:29.194Z,-0.80
2022-12-16T21:06:14.731Z,-0.80
2022-12-16T21:09:00.236Z,-0.80
2022-12-16T21:11:45.346Z,-0.80
2022-12-16T21:14:30.749Z,-0.70
2022-12-16T21:17:18.703Z,-0.70
2022-12-16T21:20:23.655Z,-0.80
2022-12-16T21:23:20.540Z,-0.80
2022-12-16T21:26:06.024Z,-0.80
2022-12-16T21:28:51.782Z,-0.80
2022-12-16T21:31:37.872Z,-0.80
2022-12-16T21:34:23.620Z,-0.70
2022-12-16T21:37:10.224Z,-0.70
2022-12-16T21:39:56.668Z,-0.60
2022-12-16T21:42:44.103Z,-0.60
2022-12-16T21:45:30.789Z,-0.60
2022-12-16T21:48:16.280Z,-0.60
2022-12-16T21:51:01.704Z,-0.70
2022-12-16T21:53:47.622Z,-0.70
2022-12-16T21:56:33.425Z,-0.60
2022-12-16T21:59:19.023Z,-0.60
2022-12-16T22:02:04.917Z,-0.60
2022-12-16T22:04:50.349Z,-0.70
2022-12-16T22:07:35.819Z,-0.70
2022-12-16T22:10:22.854Z,-0.70
2022-12-16T22:13:08.334Z,-0.70
2022-12-16T22:15:53.806Z,-0.80
2022-12-16T22:18:44.783Z,-0.80
2022-12-16T22:21:30.293Z,-0.70
2022-12-16T22:24:15.746Z,-0.80
2022-12-16T22:27:01.208Z,-0.80
2022-12-16T22:29:46.848Z,-0.70
2022-12-16T22:32:32.302Z,-0.60
2022-12-16T22:35:17.683Z,-0.70
2022-12-16T22:38:03.111Z,-0.70
2022-12-16T22:40:48.605Z,-0.70
2022-12-16T22:43:34.574Z,-0.70
2022-12-16T22:46:21.081Z,-0.80
2022-12-16T22:49:06.410Z,-0.70
2022-12-16T22:51:52.439Z,-0.80
2022-12-16T22:54:39.249Z,-0.70
2022-12-16T22:57:24.742Z,-0.80
2022-12-16T23:00:10.215Z,-0.80
2022-12-16T23:02:55.715Z,-0.80
2022-12-16T23:05:42.264Z,-0.90
2022-12-16T23:08:27.684Z,-0.90
2022-12-16T23:11:17.771Z,-0.90
2022-12-16T23:14:03.236Z,-0.90
2022-12-16T23:16:48.787Z,-0.90
2022-12-16T23:19:34.259Z,-0.90
2022-12-16T23:22:19.715Z,-1.00
2022-12-16T23:25:05.192Z,-1.00
2022-12-16T23:27:50.943Z,-1.00
2022-12-16T23:30:37.539Z,-1.00
2022-12-16T23:33:23.204Z,-1.00
2022-12-16T23:36:08.609Z,-1.00
2022-12-16T23:38:54.944Z,-1.00
2022-12-16T23:41:41.864Z,-0.90
2022-12-16T23:44:27.298Z,-0.90
2022-12-16T23:47:12.655Z,-0.80
2022-12-16T23:49:57.992Z,-0.90
2022-12-16T23:52:43.307Z,-0.80
2022-12-16T23:55:29.083Z,-0.80
2022-12-16T23:58:22.638Z,-0.80
